Fort Littleton, Pennsylvania
Current Conditions -  °F | °C
As of 3:08 AM on Monday 26 Jan 2015 (Local Time) from KAOO Reporting Station
Light Snow Light Snow  
Wind Chill: 16°   Ceiling: 1200
Heat Index: 25°   Visibility: 1.5mi
Dew Point: 23°   Wind: 9mph
Humidity: 92%   Direction: 40°NE
Pressure: 29.79"   Gusts: NA
Location:  40.06°N, 77.96°W
Report Text: KAOO 260808Z AUTO 04008KT 1 1/2SM -SN BR BKN012 OVC019 M04/M05 A2979 RMK AO2 P0000 T10391050
Loading
Personal Weather Stations






























Interactive Weather Map New forecast layout! Learn more

10-Day Weather Forecast

Advertisements
Track Severe Weather on mobile